sensor_id;sensor_type;location;lat;lon;timestamp;P1;durP1;ratioP1;P2;durP2;ratioP2
4638;SDS011;2332;38.646;-9.154;2023-05-07T00:02:20;21.80;;;5.13;;
4638;SDS011;2332;38.646;-9.154;2023-05-07T00:04:45;16.57;;;4.10;;
4638;SDS011;2332;38.646;-9.154;2023-05-07T00:07:10;23.13;;;4.67;;
4638;SDS011;2332;38.646;-9.154;2023-05-07T00:09:36;20.53;;;4.40;;
4638;SDS011;2332;38.646;-9.154;2023-05-07T00:12:01;11.90;;;3.23;;
4638;SDS011;2332;38.646;-9.154;2023-05-07T00:14:26;18.43;;;4.87;;
4638;SDS011;2332;38.646;-9.154;2023-05-07T00:16:52;16.13;;;4.70;;
4638;SDS011;2332;38.646;-9.154;2023-05-07T00:19:17;21.90;;;4.27;;
4638;SDS011;2332;38.646;-9.154;2023-05-07T00:21:43;19.93;;;4.23;;
4638;SDS011;2332;38.646;-9.154;2023-05-07T00:24:08;19.10;;;3.00;;
4638;SDS011;2332;38.646;-9.154;2023-05-07T00:26:33;12.63;;;3.53;;
4638;SDS011;2332;38.646;-9.154;2023-05-07T00:28:59;18.73;;;3.53;;
4638;SDS011;2332;38.646;-9.154;2023-05-07T00:31:24;17.53;;;4.20;;
4638;SDS011;2332;38.646;-9.154;2023-05-07T00:33:49;17.93;;;3.70;;
4638;SDS011;2332;38.646;-9.154;2023-05-07T00:36:15;27.37;;;4.50;;
4638;SDS011;2332;38.646;-9.154;2023-05-07T00:38:40;13.57;;;3.60;;
4638;SDS011;2332;38.646;-9.154;2023-05-07T00:41:06;20.20;;;4.20;;
4638;SDS011;2332;38.646;-9.154;2023-05-07T00:43:31;19.17;;;4.53;;
4638;SDS011;2332;38.646;-9.154;2023-05-07T00:45:57;22.80;;;5.13;;
4638;SDS011;2332;38.646;-9.154;2023-05-07T00:48:22;18.43;;;4.03;;
4638;SDS011;2332;38.646;-9.154;2023-05-07T00:50:49;28.03;;;5.50;;
4638;SDS011;2332;38.646;-9.154;2023-05-07T00:53:14;20.80;;;5.23;;
4638;SDS011;2332;38.646;-9.154;2023-05-07T00:55:40;19.20;;;5.80;;
4638;SDS011;2332;38.646;-9.154;2023-05-07T00:58:05;19.73;;;5.23;;
4638;SDS011;2332;38.646;-9.154;2023-05-07T01:00:31;17.50;;;5.33;;
4638;SDS011;2332;38.646;-9.154;2023-05-07T01:02:56;23.97;;;5.30;;
4638;SDS011;2332;38.646;-9.154;2023-05-07T01:05:22;20.03;;;5.90;;
4638;SDS011;2332;38.646;-9.154;2023-05-07T01:07:48;24.97;;;6.70;;
4638;SDS011;2332;38.646;-9.154;2023-05-07T01:10:15;19.53;;;4.83;;
4638;SDS011;2332;38.646;-9.154;2023-05-07T01:12:40;18.30;;;4.90;;
4638;SDS011;2332;38.646;-9.154;2023-05-07T01:15:07;18.53;;;5.67;;
4638;SDS011;2332;38.646;-9.154;2023-05-07T01:17:34;26.27;;;5.37;;
4638;SDS011;2332;38.646;-9.154;2023-05-07T01:20:00;27.40;;;5.17;;
4638;SDS011;2332;38.646;-9.154;2023-05-07T01:22:35;19.10;;;5.70;;
4638;SDS011;2332;38.646;-9.154;2023-05-07T01:25:02;17.13;;;5.87;;
4638;SDS011;2332;38.646;-9.154;2023-05-07T01:27:27;20.70;;;6.03;;
4638;SDS011;2332;38.646;-9.154;2023-05-07T01:29:53;21.47;;;5.33;;
4638;SDS011;2332;38.646;-9.154;2023-05-07T01:32:19;19.10;;;5.73;;
4638;SDS011;2332;38.646;-9.154;2023-05-07T01:34:46;16.07;;;4.77;;
4638;SDS011;2332;38.646;-9.154;2023-05-07T01:37:13;15.70;;;5.77;;
4638;SDS011;2332;38.646;-9.154;2023-05-07T01:39:39;17.60;;;4.97;;
4638;SDS011;2332;38.646;-9.154;2023-05-07T01:42:04;19.03;;;5.20;;
4638;SDS011;2332;38.646;-9.154;2023-05-07T01:44:30;13.13;;;5.37;;
4638;SDS011;2332;38.646;-9.154;2023-05-07T01:46:56;25.63;;;5.47;;
4638;SDS011;2332;38.646;-9.154;2023-05-07T01:49:21;23.80;;;5.50;;
4638;SDS011;2332;38.646;-9.154;2023-05-07T01:51:47;18.40;;;4.90;;
4638;SDS011;2332;38.646;-9.154;2023-05-07T01:54:13;20.53;;;4.97;;
4638;SDS011;2332;38.646;-9.154;2023-05-07T01:56:39;18.93;;;5.20;;
4638;SDS011;2332;38.646;-9.154;2023-05-07T01:59:04;12.10;;;5.07;;
4638;SDS011;2332;38.646;-9.154;2023-05-07T02:01:30;18.73;;;5.13;;
4638;SDS011;2332;38.646;-9.154;2023-05-07T02:03:55;18.30;;;5.40;;
4638;SDS011;2332;38.646;-9.154;2023-05-07T02:06:21;19.67;;;4.97;;
4638;SDS011;2332;38.646;-9.154;2023-05-07T02:08:46;20.37;;;5.67;;
4638;SDS011;2332;38.646;-9.154;2023-05-07T02:11:12;17.63;;;5.67;;
4638;SDS011;2332;38.646;-9.154;2023-05-07T02:13:41;16.30;;;5.30;;
4638;SDS011;2332;38.646;-9.154;2023-05-07T02:16:06;25.03;;;5.90;;
4638;SDS011;2332;38.646;-9.154;2023-05-07T02:18:32;21.17;;;5.63;;
4638;SDS011;2332;38.646;-9.154;2023-05-07T02:20:57;23.57;;;6.60;;
4638;SDS011;2332;38.646;-9.154;2023-05-07T02:23:23;14.07;;;5.77;;
4638;SDS011;2332;38.646;-9.154;2023-05-07T02:25:48;23.10;;;7.07;;
4638;SDS011;2332;38.646;-9.154;2023-05-07T02:28:14;17.43;;;5.33;;
4638;SDS011;2332;38.646;-9.154;2023-05-07T02:30:39;19.47;;;5.40;;
4638;SDS011;2332;38.646;-9.154;2023-05-07T02:33:05;16.77;;;6.20;;
4638;SDS011;2332;38.646;-9.154;2023-05-07T02:35:31;20.43;;;5.90;;
4638;SDS011;2332;38.646;-9.154;2023-05-07T02:37:56;28.87;;;7.20;;
4638;SDS011;2332;38.646;-9.154;2023-05-07T02:40:22;20.47;;;6.40;;
4638;SDS011;2332;38.646;-9.154;2023-05-07T02:42:47;26.07;;;7.00;;
4638;SDS011;2332;38.646;-9.154;2023-05-07T02:45:13;22.60;;;6.30;;
4638;SDS011;2332;38.646;-9.154;2023-05-07T02:47:39;19.90;;;6.63;;
4638;SDS011;2332;38.646;-9.154;2023-05-07T02:50:05;25.07;;;6.47;;
4638;SDS011;2332;38.646;-9.154;2023-05-07T02:52:30;22.23;;;6.90;;
4638;SDS011;2332;38.646;-9.154;2023-05-07T02:54:56;28.53;;;6.43;;
4638;SDS011;2332;38.646;-9.154;2023-05-07T02:57:21;19.70;;;7.03;;
4638;SDS011;2332;38.646;-9.154;2023-05-07T02:59:47;31.73;;;7.03;;
4638;SDS011;2332;38.646;-9.154;2023-05-07T03:02:12;27.13;;;6.50;;
4638;SDS011;2332;38.646;-9.154;2023-05-07T03:04:38;20.20;;;7.20;;
4638;SDS011;2332;38.646;-9.154;2023-05-07T03:07:04;15.93;;;5.83;;
4638;SDS011;2332;38.646;-9.154;2023-05-07T03:09:29;23.03;;;5.97;;
4638;SDS011;2332;38.646;-9.154;2023-05-07T03:12:03;15.87;;;6.50;;
4638;SDS011;2332;38.646;-9.154;2023-05-07T03:14:29;28.10;;;6.03;;
4638;SDS011;2332;38.646;-9.154;2023-05-07T03:16:55;18.73;;;5.63;;
4638;SDS011;2332;38.646;-9.154;2023-05-07T03:19:20;19.30;;;5.50;;
4638;SDS011;2332;38.646;-9.154;2023-05-07T03:21:46;23.87;;;6.50;;
4638;SDS011;2332;38.646;-9.154;2023-05-07T03:24:11;28.50;;;7.07;;
4638;SDS011;2332;38.646;-9.154;2023-05-07T03:26:36;30.40;;;6.70;;
4638;SDS011;2332;38.646;-9.154;2023-05-07T03:29:02;24.00;;;7.27;;
4638;SDS011;2332;38.646;-9.154;2023-05-07T03:31:27;25.30;;;6.50;;
4638;SDS011;2332;38.646;-9.154;2023-05-07T03:33:53;28.73;;;7.37;;
4638;SDS011;2332;38.646;-9.154;2023-05-07T03:36:19;21.23;;;6.40;;
4638;SDS011;2332;38.646;-9.154;2023-05-07T03:38:44;21.33;;;6.30;;
4638;SDS011;2332;38.646;-9.154;2023-05-07T03:41:09;31.30;;;7.07;;
4638;SDS011;2332;38.646;-9.154;2023-05-07T03:43:35;18.23;;;6.20;;
4638;SDS011;2332;38.646;-9.154;2023-05-07T03:46:00;23.90;;;5.90;;
4638;SDS011;2332;38.646;-9.154;2023-05-07T03:48:26;20.67;;;5.87;;
4638;SDS011;2332;38.646;-9.154;2023-05-07T03:50:51;19.90;;;6.07;;
4638;SDS011;2332;38.646;-9.154;2023-05-07T03:53:16;22.03;;;7.00;;
4638;SDS011;2332;38.646;-9.154;2023-05-07T03:55:42;21.27;;;6.10;;
4638;SDS011;2332;38.646;-9.154;2023-05-07T03:58:07;19.80;;;5.60;;
4638;SDS011;2332;38.646;-9.154;2023-05-07T04:00:32;28.80;;;6.83;;
4638;SDS011;2332;38.646;-9.154;2023-05-07T04:03:03;22.53;;;6.53;;
4638;SDS011;2332;38.646;-9.154;2023-05-07T04:05:29;25.83;;;5.50;;
4638;SDS011;2332;38.646;-9.154;2023-05-07T04:07:55;24.50;;;7.20;;
4638;SDS011;2332;38.646;-9.154;2023-05-07T04:10:20;17.20;;;5.73;;
4638;SDS011;2332;38.646;-9.154;2023-05-07T04:12:45;19.47;;;5.83;;
4638;SDS011;2332;38.646;-9.154;2023-05-07T04:15:11;20.43;;;5.87;;
4638;SDS011;2332;38.646;-9.154;2023-05-07T04:17:36;19.10;;;6.57;;
4638;SDS011;2332;38.646;-9.154;2023-05-07T04:20:02;21.10;;;6.37;;
4638;SDS011;2332;38.646;-9.154;2023-05-07T04:22:27;18.33;;;6.30;;
4638;SDS011;2332;38.646;-9.154;2023-05-07T04:24:52;25.80;;;5.23;;
4638;SDS011;2332;38.646;-9.154;2023-05-07T04:27:18;28.67;;;6.57;;
4638;SDS011;2332;38.646;-9.154;2023-05-07T04:29:43;19.77;;;5.80;;
4638;SDS011;2332;38.646;-9.154;2023-05-07T04:32:12;21.17;;;5.00;;
4638;SDS011;2332;38.646;-9.154;2023-05-07T04:34:37;24.90;;;6.33;;
4638;SDS011;2332;38.646;-9.154;2023-05-07T04:37:03;22.13;;;6.10;;
4638;SDS011;2332;38.646;-9.154;2023-05-07T04:39:28;23.33;;;6.10;;
4638;SDS011;2332;38.646;-9.154;2023-05-07T04:41:54;22.10;;;7.87;;
4638;SDS011;2332;38.646;-9.154;2023-05-07T04:44:19;22.23;;;6.60;;
4638;SDS011;2332;38.646;-9.154;2023-05-07T04:46:44;25.33;;;7.43;;
4638;SDS011;2332;38.646;-9.154;2023-05-07T04:49:10;16.83;;;5.73;;
4638;SDS011;2332;38.646;-9.154;2023-05-07T04:51:36;22.33;;;5.90;;
4638;SDS011;2332;38.646;-9.154;2023-05-07T04:54:03;18.57;;;5.87;;
4638;SDS011;2332;38.646;-9.154;2023-05-07T04:56:28;17.53;;;5.80;;
4638;SDS011;2332;38.646;-9.154;2023-05-07T04:58:55;19.60;;;5.03;;
4638;SDS011;2332;38.646;-9.154;2023-05-07T05:01:20;20.30;;;6.30;;
4638;SDS011;2332;38.646;-9.154;2023-05-07T05:03:45;18.73;;;5.90;;
4638;SDS011;2332;38.646;-9.154;2023-05-07T05:06:11;21.83;;;5.63;;
4638;SDS011;2332;38.646;-9.154;2023-05-07T05:08:36;14.20;;;4.90;;
4638;SDS011;2332;38.646;-9.154;2023-05-07T05:11:01;15.50;;;4.57;;
4638;SDS011;2332;38.646;-9.154;2023-05-07T05:13:27;16.27;;;4.67;;
4638;SDS011;2332;38.646;-9.154;2023-05-07T05:15:52;21.83;;;5.00;;
4638;SDS011;2332;38.646;-9.154;2023-05-07T05:18:18;14.47;;;4.10;;
4638;SDS011;2332;38.646;-9.154;2023-05-07T05:20:43;13.97;;;4.13;;
4638;SDS011;2332;38.646;-9.154;2023-05-07T05:23:11;17.60;;;4.50;;
4638;SDS011;2332;38.646;-9.154;2023-05-07T05:25:37;20.93;;;4.70;;
4638;SDS011;2332;38.646;-9.154;2023-05-07T05:28:04;18.83;;;4.23;;
4638;SDS011;2332;38.646;-9.154;2023-05-07T05:30:29;13.30;;;4.60;;
4638;SDS011;2332;38.646;-9.154;2023-05-07T05:32:55;12.30;;;3.63;;
4638;SDS011;2332;38.646;-9.154;2023-05-07T05:35:20;14.87;;;4.63;;
4638;SDS011;2332;38.646;-9.154;2023-05-07T05:37:45;20.10;;;4.30;;
4638;SDS011;2332;38.646;-9.154;2023-05-07T05:40:11;15.73;;;4.07;;
4638;SDS011;2332;38.646;-9.154;2023-05-07T05:42:37;12.80;;;3.87;;
4638;SDS011;2332;38.646;-9.154;2023-05-07T05:45:02;14.30;;;3.73;;
4638;SDS011;2332;38.646;-9.154;2023-05-07T05:47:28;12.40;;;4.27;;
4638;SDS011;2332;38.646;-9.154;2023-05-07T05:49:54;16.17;;;4.60;;
4638;SDS011;2332;38.646;-9.154;2023-05-07T05:52:19;17.63;;;4.50;;
4638;SDS011;2332;38.646;-9.154;2023-05-07T05:54:45;19.03;;;4.23;;
4638;SDS011;2332;38.646;-9.154;2023-05-07T05:57:10;18.07;;;4.10;;
4638;SDS011;2332;38.646;-9.154;2023-05-07T05:59:36;14.63;;;4.17;;
4638;SDS011;2332;38.646;-9.154;2023-05-07T06:02:01;18.50;;;4.73;;
4638;SDS011;2332;38.646;-9.154;2023-05-07T06:04:27;18.20;;;4.97;;
4638;SDS011;2332;38.646;-9.154;2023-05-07T06:06:52;24.57;;;5.17;;
4638;SDS011;2332;38.646;-9.154;2023-05-07T06:09:18;10.20;;;4.07;;
4638;SDS011;2332;38.646;-9.154;2023-05-07T06:11:43;11.50;;;3.90;;
4638;SDS011;2332;38.646;-9.154;2023-05-07T06:14:08;16.63;;;4.37;;
4638;SDS011;2332;38.646;-9.154;2023-05-07T06:16:34;10.47;;;3.30;;
4638;SDS011;2332;38.646;-9.154;2023-05-07T06:18:59;12.90;;;4.13;;
4638;SDS011;2332;38.646;-9.154;2023-05-07T06:21:25;13.77;;;3.27;;
4638;SDS011;2332;38.646;-9.154;2023-05-07T06:23:50;14.50;;;3.50;;
4638;SDS011;2332;38.646;-9.154;2023-05-07T06:26:17;12.33;;;3.87;;
4638;SDS011;2332;38.646;-9.154;2023-05-07T06:28:42;16.13;;;4.10;;
4638;SDS011;2332;38.646;-9.154;2023-05-07T06:31:14;18.37;;;4.43;;
4638;SDS011;2332;38.646;-9.154;2023-05-07T06:33:40;14.17;;;3.80;;
4638;SDS011;2332;38.646;-9.154;2023-05-07T06:36:05;18.23;;;4.30;;
4638;SDS011;2332;38.646;-9.154;2023-05-07T06:38:31;13.63;;;4.60;;
4638;SDS011;2332;38.646;-9.154;2023-05-07T06:40:56;20.67;;;5.17;;
4638;SDS011;2332;38.646;-9.154;2023-05-07T06:43:22;14.03;;;3.97;;
4638;SDS011;2332;38.646;-9.154;2023-05-07T06:45:47;11.83;;;4.00;;
4638;SDS011;2332;38.646;-9.154;2023-05-07T06:48:13;16.60;;;3.90;;
4638;SDS011;2332;38.646;-9.154;2023-05-07T06:50:38;18.63;;;4.07;;
4638;SDS011;2332;38.646;-9.154;2023-05-07T06:53:03;12.50;;;3.60;;
4638;SDS011;2332;38.646;-9.154;2023-05-07T06:55:29;13.80;;;4.37;;
4638;SDS011;2332;38.646;-9.154;2023-05-07T06:57:54;13.83;;;3.90;;
4638;SDS011;2332;38.646;-9.154;2023-05-07T07:00:19;16.10;;;4.40;;
4638;SDS011;2332;38.646;-9.154;2023-05-07T07:02:45;9.93;;;4.07;;
4638;SDS011;2332;38.646;-9.154;2023-05-07T07:05:10;15.33;;;4.00;;
4638;SDS011;2332;38.646;-9.154;2023-05-07T07:07:36;11.73;;;3.77;;
4638;SDS011;2332;38.646;-9.154;2023-05-07T07:10:01;16.50;;;3.97;;
4638;SDS011;2332;38.646;-9.154;2023-05-07T07:12:29;18.40;;;5.07;;
4638;SDS011;2332;38.646;-9.154;2023-05-07T07:14:55;12.17;;;4.30;;
4638;SDS011;2332;38.646;-9.154;2023-05-07T07:17:20;15.20;;;4.37;;
4638;SDS011;2332;38.646;-9.154;2023-05-07T07:19:46;24.67;;;5.30;;
4638;SDS011;2332;38.646;-9.154;2023-05-07T07:22:11;14.30;;;4.07;;
4638;SDS011;2332;38.646;-9.154;2023-05-07T07:24:36;16.23;;;4.00;;
4638;SDS011;2332;38.646;-9.154;2023-05-07T07:27:02;12.20;;;3.97;;
4638;SDS011;2332;38.646;-9.154;2023-05-07T07:29:27;17.73;;;4.20;;
4638;SDS011;2332;38.646;-9.154;2023-05-07T07:31:53;14.40;;;4.10;;
4638;SDS011;2332;38.646;-9.154;2023-05-07T07:34:18;13.40;;;3.63;;
4638;SDS011;2332;38.646;-9.154;2023-05-07T07:36:43;12.97;;;3.57;;
4638;SDS011;2332;38.646;-9.154;2023-05-07T07:39:09;16.10;;;3.57;;
4638;SDS011;2332;38.646;-9.154;2023-05-07T07:41:34;14.87;;;4.00;;
4638;SDS011;2332;38.646;-9.154;2023-05-07T07:44:00;8.93;;;3.60;;
4638;SDS011;2332;38.646;-9.154;2023-05-07T07:46:25;16.63;;;4.30;;
4638;SDS011;2332;38.646;-9.154;2023-05-07T07:48:51;12.57;;;3.50;;
4638;SDS011;2332;38.646;-9.154;2023-05-07T07:51:17;17.17;;;5.07;;
4638;SDS011;2332;38.646;-9.154;2023-05-07T07:53:42;19.07;;;4.97;;
4638;SDS011;2332;38.646;-9.154;2023-05-07T07:56:08;9.60;;;3.60;;
4638;SDS011;2332;38.646;-9.154;2023-05-07T07:58:34;18.87;;;4.20;;
4638;SDS011;2332;38.646;-9.154;2023-05-07T08:01:00;12.47;;;3.90;;
4638;SDS011;2332;38.646;-9.154;2023-05-07T08:03:26;17.50;;;4.63;;
4638;SDS011;2332;38.646;-9.154;2023-05-07T08:05:51;21.77;;;4.50;;
4638;SDS011;2332;38.646;-9.154;2023-05-07T08:08:16;14.63;;;3.80;;
4638;SDS011;2332;38.646;-9.154;2023-05-07T08:10:42;17.37;;;5.27;;
4638;SDS011;2332;38.646;-9.154;2023-05-07T08:13:07;19.40;;;4.43;;
4638;SDS011;2332;38.646;-9.154;2023-05-07T08:15:33;13.30;;;3.90;;
4638;SDS011;2332;38.646;-9.154;2023-05-07T08:17:58;24.07;;;4.60;;
4638;SDS011;2332;38.646;-9.154;2023-05-07T08:20:25;19.33;;;4.87;;
4638;SDS011;2332;38.646;-9.154;2023-05-07T08:22:51;11.63;;;3.23;;
4638;SDS011;2332;38.646;-9.154;2023-05-07T08:25:16;18.53;;;3.87;;
4638;SDS011;2332;38.646;-9.154;2023-05-07T08:27:41;12.43;;;3.77;;
4638;SDS011;2332;38.646;-9.154;2023-05-07T08:30:07;13.63;;;3.67;;
4638;SDS011;2332;38.646;-9.154;2023-05-07T08:32:33;12.90;;;4.00;;
4638;SDS011;2332;38.646;-9.154;2023-05-07T08:34:58;15.93;;;3.93;;
4638;SDS011;2332;38.646;-9.154;2023-05-07T08:37:29;17.27;;;4.00;;
4638;SDS011;2332;38.646;-9.154;2023-05-07T08:39:55;23.10;;;4.17;;
4638;SDS011;2332;38.646;-9.154;2023-05-07T08:42:20;15.37;;;4.10;;
4638;SDS011;2332;38.646;-9.154;2023-05-07T08:44:48;16.57;;;4.03;;
4638;SDS011;2332;38.646;-9.154;2023-05-07T08:47:18;12.23;;;3.80;;
4638;SDS011;2332;38.646;-9.154;2023-05-07T08:49:43;17.37;;;4.33;;
4638;SDS011;2332;38.646;-9.154;2023-05-07T08:52:09;11.70;;;4.00;;
4638;SDS011;2332;38.646;-9.154;2023-05-07T08:54:34;12.37;;;4.13;;
4638;SDS011;2332;38.646;-9.154;2023-05-07T08:57:01;12.90;;;3.50;;
4638;SDS011;2332;38.646;-9.154;2023-05-07T08:59:27;17.43;;;4.23;;
4638;SDS011;2332;38.646;-9.154;2023-05-07T09:01:53;13.67;;;3.90;;
4638;SDS011;2332;38.646;-9.154;2023-05-07T09:04:18;15.20;;;4.27;;
4638;SDS011;2332;38.646;-9.154;2023-05-07T09:06:43;17.43;;;3.97;;
4638;SDS011;2332;38.646;-9.154;2023-05-07T09:09:09;13.00;;;3.67;;
4638;SDS011;2332;38.646;-9.154;2023-05-07T09:11:34;17.77;;;4.53;;
4638;SDS011;2332;38.646;-9.154;2023-05-07T09:14:00;15.67;;;4.30;;
4638;SDS011;2332;38.646;-9.154;2023-05-07T09:16:29;16.20;;;4.63;;
4638;SDS011;2332;38.646;-9.154;2023-05-07T09:18:57;15.50;;;3.93;;
4638;SDS011;2332;38.646;-9.154;2023-05-07T09:21:22;9.83;;;3.57;;
4638;SDS011;2332;38.646;-9.154;2023-05-07T09:23:49;18.60;;;3.97;;
4638;SDS011;2332;38.646;-9.154;2023-05-07T09:26:15;20.07;;;5.70;;
4638;SDS011;2332;38.646;-9.154;2023-05-07T09:28:40;11.70;;;4.23;;
4638;SDS011;2332;38.646;-9.154;2023-05-07T09:31:07;18.80;;;4.83;;
4638;SDS011;2332;38.646;-9.154;2023-05-07T09:33:32;13.00;;;3.40;;
4638;SDS011;2332;38.646;-9.154;2023-05-07T09:35:58;14.33;;;4.53;;
4638;SDS011;2332;38.646;-9.154;2023-05-07T09:38:23;14.27;;;4.50;;
4638;SDS011;2332;38.646;-9.154;2023-05-07T09:40:54;19.67;;;5.10;;
4638;SDS011;2332;38.646;-9.154;2023-05-07T09:43:26;24.40;;;4.33;;
4638;SDS011;2332;38.646;-9.154;2023-05-07T09:45:51;12.93;;;3.80;;
4638;SDS011;2332;38.646;-9.154;2023-05-07T09:48:17;15.60;;;4.03;;
4638;SDS011;2332;38.646;-9.154;2023-05-07T09:50:49;12.43;;;3.47;;
4638;SDS011;2332;38.646;-9.154;2023-05-07T09:53:17;15.17;;;3.90;;
4638;SDS011;2332;38.646;-9.154;2023-05-07T09:55:45;15.37;;;4.10;;
4638;SDS011;2332;38.646;-9.154;2023-05-07T09:58:17;14.40;;;3.83;;
4638;SDS011;2332;38.646;-9.154;2023-05-07T10:00:43;24.17;;;4.43;;
4638;SDS011;2332;38.646;-9.154;2023-05-07T10:03:09;14.03;;;4.23;;
4638;SDS011;2332;38.646;-9.154;2023-05-07T10:05:35;15.37;;;4.10;;
4638;SDS011;2332;38.646;-9.154;2023-05-07T10:08:01;10.97;;;3.57;;
4638;SDS011;2332;38.646;-9.154;2023-05-07T10:10:27;8.40;;;3.00;;
4638;SDS011;2332;38.646;-9.154;2023-05-07T10:12:52;15.33;;;3.70;;
4638;SDS011;2332;38.646;-9.154;2023-05-07T10:15:18;12.90;;;4.00;;
4638;SDS011;2332;38.646;-9.154;2023-05-07T10:17:44;11.37;;;3.50;;
4638;SDS011;2332;38.646;-9.154;2023-05-07T10:20:10;11.90;;;3.00;;
4638;SDS011;2332;38.646;-9.154;2023-05-07T10:22:39;13.30;;;3.93;;
4638;SDS011;2332;38.646;-9.154;2023-05-07T10:25:28;17.47;;;3.63;;
4638;SDS011;2332;38.646;-9.154;2023-05-07T10:27:51;16.47;;;3.80;;
4638;SDS011;2332;38.646;-9.154;2023-05-07T10:32:49;16.60;;;3.83;;
4638;SDS011;2332;38.646;-9.154;2023-05-07T10:35:17;17.20;;;4.07;;
4638;SDS011;2332;38.646;-9.154;2023-05-07T10:37:44;20.07;;;4.67;;
4638;SDS011;2332;38.646;-9.154;2023-05-07T10:40:10;16.40;;;3.90;;
4638;SDS011;2332;38.646;-9.154;2023-05-07T10:42:35;13.60;;;3.60;;
4638;SDS011;2332;38.646;-9.154;2023-05-07T10:45:13;12.67;;;4.20;;
4638;SDS011;2332;38.646;-9.154;2023-05-07T10:48:13;11.43;;;4.03;;
4638;SDS011;2332;38.646;-9.154;2023-05-07T10:50:31;12.03;;;3.23;;
4638;SDS011;2332;38.646;-9.154;2023-05-07T10:55:40;17.50;;;4.20;;
4638;SDS011;2332;38.646;-9.154;2023-05-07T11:00:46;13.00;;;3.73;;
4638;SDS011;2332;38.646;-9.154;2023-05-07T11:03:12;13.70;;;4.20;;
4638;SDS011;2332;38.646;-9.154;2023-05-07T11:05:39;12.10;;;4.10;;
4638;SDS011;2332;38.646;-9.154;2023-05-07T11:08:05;12.83;;;3.67;;
4638;SDS011;2332;38.646;-9.154;2023-05-07T11:13:15;14.37;;;3.80;;
4638;SDS011;2332;38.646;-9.154;2023-05-07T11:15:44;16.03;;;4.53;;
4638;SDS011;2332;38.646;-9.154;2023-05-07T11:18:11;14.30;;;3.87;;
4638;SDS011;2332;38.646;-9.154;2023-05-07T11:20:46;12.47;;;3.80;;
4638;SDS011;2332;38.646;-9.154;2023-05-07T11:26:06;17.10;;;3.80;;
4638;SDS011;2332;38.646;-9.154;2023-05-07T11:28:36;12.73;;;3.60;;
4638;SDS011;2332;38.646;-9.154;2023-05-07T11:31:02;13.00;;;3.87;;
4638;SDS011;2332;38.646;-9.154;2023-05-07T11:33:30;11.40;;;3.90;;
4638;SDS011;2332;38.646;-9.154;2023-05-07T11:35:56;9.67;;;3.20;;
4638;SDS011;2332;38.646;-9.154;2023-05-07T11:38:22;11.03;;;3.53;;
4638;SDS011;2332;38.646;-9.154;2023-05-07T11:40:57;11.73;;;4.00;;
4638;SDS011;2332;38.646;-9.154;2023-05-07T11:43:24;11.17;;;4.17;;
4638;SDS011;2332;38.646;-9.154;2023-05-07T11:45:49;15.87;;;4.07;;
4638;SDS011;2332;38.646;-9.154;2023-05-07T11:48:15;12.13;;;4.27;;
4638;SDS011;2332;38.646;-9.154;2023-05-07T11:50:50;10.50;;;3.63;;
4638;SDS011;2332;38.646;-9.154;2023-05-07T11:53:17;19.60;;;4.30;;
4638;SDS011;2332;38.646;-9.154;2023-05-07T11:55:42;9.63;;;2.63;;
4638;SDS011;2332;38.646;-9.154;2023-05-07T11:58:09;9.20;;;2.90;;
4638;SDS011;2332;38.646;-9.154;2023-05-07T12:00:35;11.37;;;4.10;;
4638;SDS011;2332;38.646;-9.154;2023-05-07T12:03:04;12.63;;;3.63;;
4638;SDS011;2332;38.646;-9.154;2023-05-07T12:05:30;12.77;;;4.90;;
4638;SDS011;2332;38.646;-9.154;2023-05-07T12:07:56;15.27;;;4.77;;
4638;SDS011;2332;38.646;-9.154;2023-05-07T12:10:25;9.53;;;3.53;;
4638;SDS011;2332;38.646;-9.154;2023-05-07T12:12:53;10.33;;;3.33;;
4638;SDS011;2332;38.646;-9.154;2023-05-07T12:15:22;13.57;;;3.20;;
4638;SDS011;2332;38.646;-9.154;2023-05-07T12:17:48;14.23;;;3.63;;
4638;SDS011;2332;38.646;-9.154;2023-05-07T12:20:13;10.03;;;3.27;;
4638;SDS011;2332;38.646;-9.154;2023-05-07T12:22:40;14.47;;;3.60;;
4638;SDS011;2332;38.646;-9.154;2023-05-07T12:25:05;13.90;;;3.50;;
4638;SDS011;2332;38.646;-9.154;2023-05-07T12:27:36;11.07;;;3.40;;
4638;SDS011;2332;38.646;-9.154;2023-05-07T12:30:04;6.97;;;2.97;;
4638;SDS011;2332;38.646;-9.154;2023-05-07T12:32:30;10.83;;;3.20;;
4638;SDS011;2332;38.646;-9.154;2023-05-07T12:35:01;8.67;;;3.37;;
4638;SDS011;2332;38.646;-9.154;2023-05-07T12:37:26;6.20;;;2.57;;
4638;SDS011;2332;38.646;-9.154;2023-05-07T12:40:09;14.47;;;3.77;;
4638;SDS011;2332;38.646;-9.154;2023-05-07T12:42:38;13.33;;;3.50;;
4638;SDS011;2332;38.646;-9.154;2023-05-07T12:45:15;11.80;;;3.47;;
4638;SDS011;2332;38.646;-9.154;2023-05-07T12:47:47;13.23;;;3.10;;
4638;SDS011;2332;38.646;-9.154;2023-05-07T12:50:13;14.33;;;3.60;;
4638;SDS011;2332;38.646;-9.154;2023-05-07T12:52:39;12.60;;;3.20;;
4638;SDS011;2332;38.646;-9.154;2023-05-07T12:55:05;8.20;;;3.13;;
4638;SDS011;2332;38.646;-9.154;2023-05-07T12:57:37;8.27;;;3.87;;
4638;SDS011;2332;38.646;-9.154;2023-05-07T13:00:02;11.63;;;3.60;;
4638;SDS011;2332;38.646;-9.154;2023-05-07T13:02:34;7.30;;;3.30;;
4638;SDS011;2332;38.646;-9.154;2023-05-07T13:05:02;10.43;;;3.67;;
4638;SDS011;2332;38.646;-9.154;2023-05-07T13:07:27;10.57;;;3.90;;
4638;SDS011;2332;38.646;-9.154;2023-05-07T13:09:53;8.13;;;3.00;;
4638;SDS011;2332;38.646;-9.154;2023-05-07T13:12:18;18.13;;;4.00;;
4638;SDS011;2332;38.646;-9.154;2023-05-07T13:14:44;12.77;;;3.40;;
4638;SDS011;2332;38.646;-9.154;2023-05-07T13:17:09;7.40;;;3.30;;
4638;SDS011;2332;38.646;-9.154;2023-05-07T13:19:35;8.33;;;2.70;;
4638;SDS011;2332;38.646;-9.154;2023-05-07T13:22:02;11.70;;;4.03;;
4638;SDS011;2332;38.646;-9.154;2023-05-07T13:24:27;8.90;;;2.83;;
4638;SDS011;2332;38.646;-9.154;2023-05-07T13:26:53;9.37;;;3.63;;
4638;SDS011;2332;38.646;-9.154;2023-05-07T13:29:18;10.97;;;3.80;;
4638;SDS011;2332;38.646;-9.154;2023-05-07T13:31:43;11.27;;;3.07;;
4638;SDS011;2332;38.646;-9.154;2023-05-07T13:34:09;12.57;;;3.57;;
4638;SDS011;2332;38.646;-9.154;2023-05-07T13:36:34;10.00;;;2.70;;
4638;SDS011;2332;38.646;-9.154;2023-05-07T13:39:02;11.07;;;3.50;;
4638;SDS011;2332;38.646;-9.154;2023-05-07T13:41:28;8.50;;;3.10;;
4638;SDS011;2332;38.646;-9.154;2023-05-07T13:43:53;8.60;;;3.00;;
4638;SDS011;2332;38.646;-9.154;2023-05-07T13:46:19;7.43;;;2.80;;
4638;SDS011;2332;38.646;-9.154;2023-05-07T13:48:44;13.37;;;3.80;;
4638;SDS011;2332;38.646;-9.154;2023-05-07T13:51:10;9.20;;;3.30;;
4638;SDS011;2332;38.646;-9.154;2023-05-07T13:53:44;12.00;;;3.27;;
4638;SDS011;2332;38.646;-9.154;2023-05-07T13:56:13;12.33;;;3.07;;
4638;SDS011;2332;38.646;-9.154;2023-05-07T13:58:39;9.67;;;3.60;;
4638;SDS011;2332;38.646;-9.154;2023-05-07T14:01:04;10.63;;;3.20;;
4638;SDS011;2332;38.646;-9.154;2023-05-07T14:03:30;7.60;;;3.33;;
4638;SDS011;2332;38.646;-9.154;2023-05-07T14:05:56;6.63;;;2.33;;
4638;SDS011;2332;38.646;-9.154;2023-05-07T14:08:22;8.00;;;3.30;;
4638;SDS011;2332;38.646;-9.154;2023-05-07T14:10:48;8.03;;;2.63;;
4638;SDS011;2332;38.646;-9.154;2023-05-07T14:13:13;10.67;;;2.73;;
4638;SDS011;2332;38.646;-9.154;2023-05-07T14:15:39;10.47;;;2.67;;
4638;SDS011;2332;38.646;-9.154;2023-05-07T14:18:05;7.37;;;2.53;;
4638;SDS011;2332;38.646;-9.154;2023-05-07T14:20:30;10.83;;;2.50;;
4638;SDS011;2332;38.646;-9.154;2023-05-07T14:22:56;8.00;;;2.60;;
4638;SDS011;2332;38.646;-9.154;2023-05-07T14:25:21;7.63;;;2.57;;
4638;SDS011;2332;38.646;-9.154;2023-05-07T14:27:46;10.30;;;2.90;;
4638;SDS011;2332;38.646;-9.154;2023-05-07T14:30:15;8.20;;;3.00;;
4638;SDS011;2332;38.646;-9.154;2023-05-07T14:32:41;9.63;;;2.97;;
4638;SDS011;2332;38.646;-9.154;2023-05-07T14:35:07;6.03;;;2.30;;
4638;SDS011;2332;38.646;-9.154;2023-05-07T14:37:33;12.10;;;3.00;;
4638;SDS011;2332;38.646;-9.154;2023-05-07T14:39:58;7.37;;;2.50;;
4638;SDS011;2332;38.646;-9.154;2023-05-07T14:42:24;6.40;;;2.60;;
4638;SDS011;2332;38.646;-9.154;2023-05-07T14:44:49;8.00;;;3.00;;
4638;SDS011;2332;38.646;-9.154;2023-05-07T14:47:14;5.93;;;2.70;;
4638;SDS011;2332;38.646;-9.154;2023-05-07T14:49:41;10.33;;;2.53;;
4638;SDS011;2332;38.646;-9.154;2023-05-07T14:52:07;11.77;;;2.63;;
4638;SDS011;2332;38.646;-9.154;2023-05-07T14:54:34;6.93;;;2.67;;
4638;SDS011;2332;38.646;-9.154;2023-05-07T14:57:00;10.37;;;2.60;;
4638;SDS011;2332;38.646;-9.154;2023-05-07T14:59:26;6.83;;;2.40;;